createdAt,value
2019-03-21T00:02:12.431Z,92.50
2019-03-21T00:04:42.902Z,92.50
2019-03-21T00:07:11.820Z,92.50
2019-03-21T00:09:42.221Z,92.20
2019-03-21T00:12:11.563Z,92.00
2019-03-21T00:14:55.525Z,91.80
2019-03-21T00:17:33.268Z,91.80
2019-03-21T00:20:02.175Z,91.60
2019-03-21T00:22:31.047Z,91.40
2019-03-21T00:24:59.898Z,91.30
2019-03-21T00:27:28.852Z,91.30
2019-03-21T00:29:57.690Z,91.20
2019-03-21T00:32:26.534Z,91.20
2019-03-21T00:34:55.458Z,91.10
2019-03-21T00:37:24.316Z,91.10
2019-03-21T00:39:53.166Z,91.20
2019-03-21T00:42:22.065Z,91.10
2019-03-21T00:44:50.999Z,91.10
2019-03-21T00:47:19.890Z,90.90
2019-03-21T00:49:48.829Z,90.90
2019-03-21T00:52:17.698Z,90.90
2019-03-21T00:54:46.573Z,90.90
2019-03-21T00:57:15.473Z,90.90
2019-03-21T00:59:44.321Z,90.80
2019-03-21T01:02:13.228Z,91.10
2019-03-21T01:04:42.126Z,91.30
2019-03-21T01:07:10.980Z,91.70
2019-03-21T01:09:39.851Z,91.30
2019-03-21T01:12:09.084Z,91.50
2019-03-21T01:14:37.935Z,91.70
2019-03-21T01:17:06.786Z,91.50
2019-03-21T01:19:35.698Z,91.50
2019-03-21T01:22:04.551Z,91.70
2019-03-21T01:24:33.391Z,91.90
2019-03-21T01:27:02.320Z,91.90
2019-03-21T01:29:31.782Z,92.10
2019-03-21T01:32:00.637Z,92.10
2019-03-21T01:34:29.522Z,92.20
2019-03-21T01:36:58.360Z,92.10
2019-03-21T01:39:27.226Z,92.20
2019-03-21T01:41:56.142Z,92.10
2019-03-21T01:44:24.990Z,92.00
2019-03-21T01:46:53.851Z,92.10
2019-03-21T01:49:22.755Z,92.00
2019-03-21T01:51:51.603Z,91.90
2019-03-21T01:54:20.443Z,92.00
2019-03-21T01:56:49.409Z,92.00
2019-03-21T01:59:18.274Z,92.20
2019-03-21T02:01:47.189Z,92.10
2019-03-21T02:04:16.077Z,92.10
2019-03-21T02:06:44.950Z,92.30
2019-03-21T02:09:13.853Z,92.30
2019-03-21T02:11:42.670Z,92.50
2019-03-21T02:14:11.592Z,92.70
2019-03-21T02:16:40.515Z,92.70
2019-03-21T02:19:09.371Z,92.60
2019-03-21T02:21:38.219Z,92.40
2019-03-21T02:24:07.117Z,92.50
2019-03-21T02:26:35.985Z,92.60
2019-03-21T02:29:04.896Z,92.30
2019-03-21T02:31:33.801Z,92.20
2019-03-21T02:34:02.673Z,92.20
2019-03-21T02:36:31.530Z,92.10
2019-03-21T02:39:00.459Z,92.20
2019-03-21T02:41:29.314Z,92.10
2019-03-21T02:43:58.181Z,92.20
2019-03-21T02:46:27.070Z,92.00
2019-03-21T02:48:55.917Z,92.10
2019-03-21T02:51:24.728Z,92.30
2019-03-21T02:53:53.710Z,92.30
2019-03-21T02:56:24.753Z,92.20
2019-03-21T02:58:53.636Z,92.30
2019-03-21T03:01:22.581Z,92.50
2019-03-21T03:03:51.432Z,92.80
2019-03-21T03:06:20.322Z,92.90
2019-03-21T03:08:49.201Z,93.00
2019-03-21T03:11:22.589Z,92.70
2019-03-21T03:13:51.968Z,92.90
2019-03-21T03:16:22.584Z,93.10
2019-03-21T03:18:51.465Z,93.10
2019-03-21T03:21:20.339Z,93.10
2019-03-21T03:23:49.260Z,93.20
2019-03-21T03:26:18.098Z,93.10
2019-03-21T03:28:47.829Z,92.90
2019-03-21T03:31:16.793Z,93.00
2019-03-21T03:33:45.938Z,93.10
2019-03-21T03:36:16.288Z,93.30
2019-03-21T03:38:45.261Z,93.50
2019-03-21T03:41:16.867Z,93.70
2019-03-21T03:43:45.778Z,93.80
2019-03-21T03:46:14.679Z,93.80
2019-03-21T03:48:43.707Z,94.00
2019-03-21T03:51:12.554Z,94.00
2019-03-21T03:53:42.632Z,93.90
2019-03-21T03:56:11.821Z,93.80
2019-03-21T03:58:43.622Z,94.00
2019-03-21T04:01:12.655Z,94.20
2019-03-21T04:03:41.550Z,93.90
2019-03-21T04:06:10.523Z,94.00
2019-03-21T04:08:39.404Z,94.00
2019-03-21T04:11:08.274Z,94.00
2019-03-21T04:13:37.152Z,93.90
2019-03-21T04:16:06.049Z,94.00
2019-03-21T04:18:34.911Z,94.10
2019-03-21T04:21:14.545Z,94.10
2019-03-21T04:23:43.385Z,94.10
2019-03-21T04:26:15.842Z,94.00
2019-03-21T04:28:44.740Z,94.10
2019-03-21T04:31:13.615Z,94.20
2019-03-21T04:33:44.360Z,94.00
2019-03-21T04:36:13.287Z,94.20
2019-03-21T04:38:42.118Z,94.10
2019-03-21T04:41:11.007Z,93.80
2019-03-21T04:43:39.969Z,93.90
2019-03-21T04:46:08.815Z,94.30
2019-03-21T04:48:37.683Z,94.70
2019-03-21T04:51:06.695Z,95.40
2019-03-21T04:53:35.554Z,95.90
2019-03-21T04:56:04.420Z,95.60
2019-03-21T04:58:33.320Z,95.20
2019-03-21T05:01:02.129Z,95.30
2019-03-21T05:03:32.448Z,95.80
2019-03-21T05:06:01.383Z,96.10
2019-03-21T05:08:30.266Z,96.20
2019-03-21T05:10:59.115Z,96.00
2019-03-21T05:13:27.998Z,95.90
2019-03-21T05:15:56.874Z,96.00
2019-03-21T05:18:31.762Z,95.60
2019-03-21T05:21:02.187Z,95.50
2019-03-21T05:23:31.044Z,95.20
2019-03-21T05:25:59.930Z,95.30
2019-03-21T05:28:28.845Z,95.40
2019-03-21T05:31:06.782Z,95.70
2019-03-21T05:33:35.689Z,95.30
2019-03-21T05:36:04.539Z,95.10
2019-03-21T05:38:33.982Z,94.90
2019-03-21T05:41:03.004Z,94.90
2019-03-21T05:43:35.343Z,94.80
2019-03-21T05:46:04.284Z,94.60
2019-03-21T05:48:33.183Z,95.10
2019-03-21T05:51:02.035Z,94.80
2019-03-21T05:53:36.144Z,94.50
2019-03-21T05:56:06.585Z,94.40
2019-03-21T05:58:39.895Z,94.10
2019-03-21T06:01:13.427Z,94.00
2019-03-21T06:03:50.651Z,93.70
2019-03-21T06:06:22.486Z,93.50
2019-03-21T06:08:52.289Z,93.70
2019-03-21T06:11:21.509Z,94.00
2019-03-21T06:13:50.428Z,94.00
2019-03-21T06:16:19.277Z,93.80
2019-03-21T06:19:06.215Z,93.80
2019-03-21T06:21:44.102Z,93.70
2019-03-21T06:24:31.079Z,93.80
2019-03-21T06:27:28.809Z,93.20
2019-03-21T06:29:57.921Z,93.00
2019-03-21T06:32:27.791Z,93.00
2019-03-21T06:34:57.545Z,92.80
2019-03-21T06:37:28.659Z,92.70
2019-03-21T06:39:57.152Z,92.50
2019-03-21T06:42:26.005Z,92.50
2019-03-21T06:44:54.909Z,92.60
2019-03-21T06:47:23.761Z,92.60
2019-03-21T06:49:52.622Z,92.30
2019-03-21T06:52:21.546Z,92.10
2019-03-21T06:54:50.408Z,92.10
2019-03-21T06:57:19.278Z,92.20
2019-03-21T06:59:48.185Z,92.20
2019-03-21T07:02:17.063Z,92.00
2019-03-21T07:04:45.896Z,91.70
2019-03-21T07:07:14.833Z,91.60
2019-03-21T07:09:44.600Z,91.00
2019-03-21T07:12:13.464Z,90.60
2019-03-21T07:14:43.226Z,90.40
2019-03-21T07:17:12.084Z,90.00
2019-03-21T07:19:40.938Z,89.50
2019-03-21T07:22:12.256Z,89.50
2019-03-21T07:24:40.379Z,89.70
2019-03-21T07:27:09.242Z,89.50
2019-03-21T07:29:38.150Z,89.20
2019-03-21T07:32:10.994Z,89.10
2019-03-21T07:34:39.850Z,88.70
2019-03-21T07:37:08.795Z,88.30
2019-03-21T07:39:37.643Z,88.00
2019-03-21T07:42:06.486Z,88.00
2019-03-21T07:44:35.753Z,87.90
2019-03-21T07:47:12.628Z,88.40
2019-03-21T07:49:35.211Z,88.20
2019-03-21T07:52:04.134Z,87.10
2019-03-21T07:54:32.998Z,86.70
2019-03-21T07:57:01.859Z,86.40
2019-03-21T07:59:30.785Z,85.80
2019-03-21T08:01:59.645Z,85.20
2019-03-21T08:04:28.490Z,84.40
2019-03-21T08:06:58.073Z,83.30
2019-03-21T08:09:26.923Z,82.20
2019-03-21T08:11:55.797Z,81.20
2019-03-21T08:14:24.713Z,79.90
2019-03-21T08:16:53.568Z,79.50
2019-03-21T08:19:22.426Z,78.90
2019-03-21T08:21:51.348Z,77.70
2019-03-21T08:24:20.221Z,75.70
2019-03-21T08:26:49.081Z,74.30
2019-03-21T08:29:17.976Z,72.90
2019-03-21T08:31:46.852Z,69.90
2019-03-21T08:34:15.710Z,62.90
2019-03-21T08:36:44.611Z,56.60
2019-03-21T08:39:13.460Z,53.10
2019-03-21T08:41:42.326Z,50.50
2019-03-21T08:44:11.353Z,47.90
2019-03-21T08:46:40.229Z,46.00
2019-03-21T08:49:09.095Z,43.10
2019-03-21T08:51:38.037Z,43.60
2019-03-21T08:54:07.195Z,44.00
2019-03-21T08:56:36.065Z,41.80
2019-03-21T08:59:05.077Z,40.10
2019-03-21T09:01:33.943Z,39.40
2019-03-21T09:04:02.819Z,38.70
2019-03-21T09:06:31.749Z,38.10
2019-03-21T09:09:00.620Z,38.00
2019-03-21T09:11:29.513Z,36.80
2019-03-21T09:14:01.108Z,36.50
2019-03-21T09:16:29.963Z,36.10
2019-03-21T09:18:58.811Z,36.20
2019-03-21T09:21:27.731Z,36.90
2019-03-21T09:23:56.595Z,37.00
2019-03-21T09:26:25.467Z,37.40
2019-03-21T09:28:54.403Z,36.90
2019-03-21T09:31:23.263Z,38.80
2019-03-21T09:33:52.105Z,39.30
2019-03-21T09:36:21.003Z,39.60
2019-03-21T09:38:49.865Z,39.80
2019-03-21T09:41:18.714Z,38.60
2019-03-21T09:43:47.593Z,38.10
2019-03-21T09:46:16.548Z,37.00
2019-03-21T09:48:45.434Z,35.60
2019-03-21T09:51:14.358Z,34.80
2019-03-21T09:53:43.212Z,36.00
2019-03-21T09:56:12.059Z,35.00
2019-03-21T09:58:41.174Z,32.50
2019-03-21T10:01:10.029Z,30.00
2019-03-21T10:03:38.926Z,30.10
2019-03-21T10:06:07.841Z,30.80
2019-03-21T10:08:36.692Z,30.40
2019-03-21T10:11:05.697Z,30.00
2019-03-21T10:13:34.774Z,30.90
2019-03-21T10:16:03.642Z,30.60
2019-03-21T10:18:32.517Z,29.90
2019-03-21T10:21:01.411Z,30.70
2019-03-21T10:23:30.269Z,32.70
2019-03-21T10:25:59.147Z,34.90
2019-03-21T10:28:28.045Z,37.30
2019-03-21T10:30:57.356Z,39.00
2019-03-21T10:33:26.280Z,40.90
2019-03-21T10:35:56.599Z,41.50
2019-03-21T10:38:25.470Z,41.10
2019-03-21T10:40:54.334Z,40.80
2019-03-21T10:43:23.311Z,41.60
2019-03-21T10:45:52.121Z,41.30
2019-03-21T10:48:23.340Z,42.20
2019-03-21T10:50:51.540Z,43.50
2019-03-21T10:53:21.730Z,41.60
2019-03-21T10:55:50.580Z,41.60
2019-03-21T10:58:19.522Z,41.80
2019-03-21T11:00:48.372Z,41.00
2019-03-21T11:03:17.276Z,41.70
2019-03-21T11:05:46.272Z,41.50
2019-03-21T11:08:15.131Z,41.00
2019-03-21T11:10:44.012Z,40.90
2019-03-21T11:13:13.029Z,40.70
2019-03-21T11:15:41.876Z,40.90
2019-03-21T11:18:11.635Z,40.60
2019-03-21T11:20:40.665Z,40.30
2019-03-21T11:23:09.935Z,40.80
2019-03-21T11:25:38.909Z,41.00
2019-03-21T11:28:08.019Z,40.70
2019-03-21T11:30:38.764Z,40.30
2019-03-21T11:33:08.017Z,41.00
2019-03-21T11:35:37.007Z,41.20
2019-03-21T11:38:06.623Z,41.10
2019-03-21T11:40:35.511Z,40.60
2019-03-21T11:43:06.032Z,39.60
2019-03-21T11:45:34.973Z,39.00
2019-03-21T11:48:04.133Z,39.20
2019-03-21T11:50:33.042Z,39.50
2019-03-21T11:53:01.906Z,39.60
2019-03-21T11:55:30.779Z,40.00
2019-03-21T11:57:59.687Z,40.00
2019-03-21T12:00:28.542Z,40.20
2019-03-21T12:02:57.527Z,41.50
2019-03-21T12:05:26.473Z,39.80
2019-03-21T12:07:55.352Z,39.70
2019-03-21T12:10:24.295Z,39.60
2019-03-21T12:12:53.211Z,38.30
2019-03-21T12:15:22.047Z,38.60
2019-03-21T12:17:50.884Z,38.60
2019-03-21T12:20:30.855Z,38.20
2019-03-21T12:22:59.737Z,38.50
2019-03-21T12:25:28.621Z,37.90
2019-03-21T12:27:57.717Z,38.10
2019-03-21T12:30:37.428Z,38.80
2019-03-21T12:33:06.909Z,38.80
2019-03-21T12:35:35.812Z,37.50
2019-03-21T12:38:05.369Z,37.90
2019-03-21T12:40:34.281Z,38.30
2019-03-21T12:43:03.206Z,38.30
2019-03-21T12:45:32.110Z,37.80
2019-03-21T12:48:01.007Z,37.00
2019-03-21T12:50:29.861Z,36.70
2019-03-21T12:52:58.717Z,37.30
2019-03-21T12:55:27.642Z,36.60
2019-03-21T12:57:56.504Z,37.00
2019-03-21T13:00:37.468Z,36.60
2019-03-21T13:03:06.600Z,37.30
2019-03-21T13:05:35.465Z,37.50
2019-03-21T13:08:04.654Z,37.40
2019-03-21T13:10:33.522Z,36.70
2019-03-21T13:13:02.361Z,37.00
2019-03-21T13:15:31.315Z,36.80
2019-03-21T13:18:00.733Z,36.70
2019-03-21T13:20:29.836Z,36.90
2019-03-21T13:22:58.801Z,36.70
2019-03-21T13:25:27.673Z,36.80
2019-03-21T13:27:56.534Z,36.90
2019-03-21T13:30:25.448Z,37.40
2019-03-21T13:32:54.293Z,36.70
2019-03-21T13:35:32.129Z,36.30
2019-03-21T13:37:54.069Z,35.90
2019-03-21T13:40:23.040Z,36.20
2019-03-21T13:42:52.830Z,36.50
2019-03-21T13:45:21.775Z,36.40
2019-03-21T13:47:50.630Z,36.60
2019-03-21T13:50:19.490Z,36.90
2019-03-21T13:52:48.415Z,36.70
2019-03-21T13:55:17.272Z,37.00
2019-03-21T13:57:46.147Z,37.00
2019-03-21T14:00:20.646Z,36.90
2019-03-21T14:02:49.486Z,36.80
2019-03-21T14:05:18.339Z,37.20
2019-03-21T14:07:47.564Z,37.40
2019-03-21T14:10:16.432Z,37.40
2019-03-21T14:12:45.284Z,36.90
2019-03-21T14:15:16.163Z,37.30
2019-03-21T14:17:45.034Z,37.50
2019-03-21T14:20:15.584Z,37.40
2019-03-21T14:22:44.480Z,37.20
2019-03-21T14:25:14.416Z,37.20
2019-03-21T14:27:43.279Z,37.40
2019-03-21T14:30:14.843Z,37.60
2019-03-21T14:32:43.705Z,37.40
2019-03-21T14:35:12.868Z,37.20
2019-03-21T14:37:41.780Z,37.40
2019-03-21T14:40:15.598Z,37.30
2019-03-21T14:42:44.723Z,37.50
2019-03-21T14:45:17.797Z,38.00
2019-03-21T14:47:46.872Z,37.30
2019-03-21T14:50:16.975Z,37.40
2019-03-21T14:52:45.848Z,37.50
2019-03-21T14:55:16.178Z,37.50
2019-03-21T14:57:45.099Z,38.00
2019-03-21T15:00:16.638Z,37.30
2019-03-21T15:02:45.476Z,37.60
2019-03-21T15:05:15.874Z,37.30
2019-03-21T15:07:44.724Z,37.50
2019-03-21T15:10:16.231Z,37.70
2019-03-21T15:12:45.272Z,37.80
2019-03-21T15:15:15.634Z,37.50
2019-03-21T15:17:44.510Z,37.90
2019-03-21T15:20:17.477Z,37.60
2019-03-21T15:22:46.468Z,37.80
2019-03-21T15:25:15.380Z,37.50
2019-03-21T15:27:44.292Z,37.80
2019-03-21T15:30:18.624Z,37.70
2019-03-21T15:32:48.259Z,38.10
2019-03-21T15:35:18.302Z,38.20
2019-03-21T15:37:47.154Z,38.10
2019-03-21T15:40:16.459Z,38.20
2019-03-21T15:42:45.335Z,38.50
2019-03-21T15:45:22.955Z,38.30
2019-03-21T15:47:48.159Z,38.20
2019-03-21T15:50:28.397Z,38.10
2019-03-21T15:52:57.999Z,38.40
2019-03-21T15:55:26.849Z,38.60
2019-03-21T15:57:55.763Z,38.60
2019-03-21T16:00:38.809Z,39.00
2019-03-21T16:03:09.087Z,38.60
2019-03-21T16:05:38.543Z,38.80
2019-03-21T16:08:09.102Z,39.20
2019-03-21T16:10:38.419Z,39.30
2019-03-21T16:13:08.679Z,39.20
2019-03-21T16:15:37.632Z,39.40
2019-03-21T16:18:06.656Z,39.70
2019-03-21T16:20:35.539Z,39.70
2019-03-21T16:23:04.442Z,39.90
2019-03-21T16:25:33.317Z,40.20
2019-03-21T16:28:02.155Z,40.50
2019-03-21T16:30:31.078Z,40.70
2019-03-21T16:32:59.945Z,40.90
2019-03-21T16:35:28.835Z,41.20
2019-03-21T16:38:00.700Z,41.30
2019-03-21T16:40:29.813Z,41.50
2019-03-21T16:42:59.653Z,41.70
2019-03-21T16:45:28.556Z,42.30
2019-03-21T16:47:57.449Z,41.80
2019-03-21T16:50:26.259Z,41.70
2019-03-21T16:52:55.461Z,42.00
2019-03-21T16:55:24.307Z,42.20
2019-03-21T16:57:53.157Z,42.30
2019-03-21T17:00:22.098Z,42.70
2019-03-21T17:02:50.965Z,43.00
2019-03-21T17:05:22.195Z,43.00
2019-03-21T17:07:50.517Z,43.30
2019-03-21T17:10:19.386Z,43.40
2019-03-21T17:12:48.428Z,43.60
2019-03-21T17:15:17.720Z,43.90
2019-03-21T17:17:46.586Z,44.00
2019-03-21T17:20:15.639Z,44.00
2019-03-21T17:22:44.541Z,44.10
2019-03-21T17:25:13.694Z,45.60
2019-03-21T17:27:42.528Z,46.50
2019-03-21T17:30:13.958Z,47.10
2019-03-21T17:32:43.713Z,47.40
2019-03-21T17:35:12.724Z,48.30
2019-03-21T17:37:41.654Z,47.90
2019-03-21T17:40:13.251Z,48.70
2019-03-21T17:42:42.111Z,49.40
2019-03-21T17:45:16.737Z,49.50
2019-03-21T17:47:45.581Z,49.40
2019-03-21T17:50:16.832Z,49.70
2019-03-21T17:52:46.040Z,50.70
2019-03-21T17:55:15.091Z,51.20
2019-03-21T17:57:43.966Z,50.10
2019-03-21T18:00:24.885Z,50.30
2019-03-21T18:02:54.860Z,51.00
2019-03-21T18:05:23.672Z,52.20
2019-03-21T18:07:52.708Z,53.60
2019-03-21T18:10:32.051Z,54.30
2019-03-21T18:13:01.031Z,54.60
2019-03-21T18:15:30.012Z,55.50
2019-03-21T18:17:58.944Z,55.80
2019-03-21T18:20:27.858Z,55.40
2019-03-21T18:22:56.716Z,55.00
2019-03-21T18:25:25.597Z,55.80
2019-03-21T18:27:54.768Z,56.80
2019-03-21T18:30:23.632Z,57.90
2019-03-21T18:32:52.470Z,58.90
2019-03-21T18:35:21.414Z,59.50
2019-03-21T18:37:50.289Z,60.30
2019-03-21T18:40:19.231Z,60.80
2019-03-21T18:42:48.131Z,61.60
2019-03-21T18:45:17.212Z,62.30
2019-03-21T18:47:46.075Z,62.90
2019-03-21T18:50:16.324Z,63.50
2019-03-21T18:52:45.168Z,63.90
2019-03-21T18:55:14.837Z,65.00
2019-03-21T18:57:43.768Z,64.80
2019-03-21T19:00:17.430Z,64.80
2019-03-21T19:02:46.266Z,65.20
2019-03-21T19:05:15.324Z,65.40
2019-03-21T19:07:44.209Z,65.80
2019-03-21T19:10:15.827Z,66.30
2019-03-21T19:12:44.953Z,67.30
2019-03-21T19:15:15.099Z,67.80
2019-03-21T19:17:44.071Z,69.10
2019-03-21T19:20:18.311Z,68.80
2019-03-21T19:22:47.485Z,70.20
2019-03-21T19:25:19.131Z,69.10
2019-03-21T19:27:47.800Z,68.70
2019-03-21T19:30:21.162Z,69.20
2019-03-21T19:32:49.985Z,73.20
2019-03-21T19:35:19.074Z,70.40
2019-03-21T19:37:48.835Z,70.50
2019-03-21T19:40:19.097Z,70.50
2019-03-21T19:42:48.106Z,70.70
2019-03-21T19:45:18.782Z,71.10
2019-03-21T19:47:47.619Z,71.60
2019-03-21T19:50:18.338Z,72.00
2019-03-21T19:52:47.310Z,72.30
2019-03-21T19:55:16.158Z,72.60
2019-03-21T19:57:45.057Z,72.90
2019-03-21T20:00:22.741Z,73.30
2019-03-21T20:02:51.997Z,73.40
2019-03-21T20:05:22.433Z,73.20
2019-03-21T20:07:51.298Z,72.40
2019-03-21T20:10:21.915Z,72.60
2019-03-21T20:12:50.831Z,72.70
2019-03-21T20:15:20.078Z,72.70
2019-03-21T20:17:48.963Z,73.20
2019-03-21T20:20:18.441Z,72.90
2019-03-21T20:22:47.283Z,73.40
2019-03-21T20:25:16.726Z,74.10
2019-03-21T20:27:45.575Z,74.40
2019-03-21T20:30:24.578Z,74.50
2019-03-21T20:32:53.446Z,74.30
2019-03-21T20:35:22.307Z,74.60
2019-03-21T20:37:51.196Z,75.00
2019-03-21T20:40:20.594Z,74.70
2019-03-21T20:42:49.477Z,75.00
2019-03-21T20:45:20.370Z,75.20
2019-03-21T20:47:49.227Z,75.50
2019-03-21T20:50:18.372Z,75.80
2019-03-21T20:52:48.365Z,76.00
2019-03-21T20:55:17.318Z,76.30
2019-03-21T20:57:46.178Z,76.10
2019-03-21T21:00:20.669Z,76.30
2019-03-21T21:02:50.024Z,76.40
2019-03-21T21:05:18.865Z,76.70
2019-03-21T21:07:47.772Z,77.00
2019-03-21T21:10:16.829Z,77.00
2019-03-21T21:12:45.779Z,76.30
2019-03-21T21:15:17.462Z,76.20
2019-03-21T21:17:46.311Z,76.60
2019-03-21T21:20:16.661Z,77.10
2019-03-21T21:22:45.792Z,77.20
2019-03-21T21:25:14.768Z,77.30
2019-03-21T21:27:49.276Z,77.50
2019-03-21T21:30:16.631Z,77.40
2019-03-21T21:32:45.549Z,77.60
2019-03-21T21:35:14.393Z,78.10
2019-03-21T21:37:43.305Z,78.80
2019-03-21T21:40:12.975Z,79.30
2019-03-21T21:42:41.849Z,79.50
2019-03-21T21:45:13.089Z,79.70
2019-03-21T21:47:42.530Z,80.00
2019-03-21T21:50:13.882Z,79.50
2019-03-21T21:52:42.765Z,79.70
2019-03-21T21:55:12.129Z,79.50
2019-03-21T21:57:40.936Z,79.60
2019-03-21T22:00:15.449Z,79.90
2019-03-21T22:02:44.318Z,80.40
2019-03-21T22:05:13.257Z,80.60
2019-03-21T22:07:42.168Z,80.80
2019-03-21T22:10:11.038Z,81.00
2019-03-21T22:12:39.878Z,80.90
2019-03-21T22:15:14.342Z,80.50
2019-03-21T22:17:43.207Z,80.60
2019-03-21T22:20:14.269Z,80.90
2019-03-21T22:22:43.211Z,80.90
2019-03-21T22:25:12.488Z,80.90
2019-03-21T22:27:41.377Z,81.40
2019-03-21T22:30:16.220Z,81.60
2019-03-21T22:32:45.050Z,82.00
2019-03-21T22:35:13.965Z,82.00
2019-03-21T22:37:42.846Z,82.30
2019-03-21T22:40:13.545Z,81.70
2019-03-21T22:42:42.405Z,81.70
2019-03-21T22:45:13.256Z,81.60
2019-03-21T22:47:42.188Z,81.80
2019-03-21T22:50:14.937Z,81.70
2019-03-21T22:52:44.529Z,81.90
2019-03-21T22:55:13.704Z,82.00
2019-03-21T22:57:42.563Z,82.10
2019-03-21T23:00:19.555Z,82.40
2019-03-21T23:02:48.411Z,82.60
2019-03-21T23:05:17.453Z,82.60
2019-03-21T23:07:46.370Z,82.70
2019-03-21T23:10:15.621Z,82.60
2019-03-21T23:12:44.510Z,82.60
2019-03-21T23:15:14.298Z,82.90
2019-03-21T23:17:43.147Z,82.90
2019-03-21T23:20:14.417Z,82.90
2019-03-21T23:22:43.331Z,83.00
2019-03-21T23:25:16.136Z,83.30
2019-03-21T23:27:44.106Z,84.10
2019-03-21T23:30:17.453Z,83.60
2019-03-21T23:32:46.517Z,83.70
2019-03-21T23:35:15.577Z,83.60
2019-03-21T23:37:44.490Z,83.90
2019-03-21T23:40:14.750Z,84.10
2019-03-21T23:42:43.718Z,83.80
2019-03-21T23:45:13.837Z,83.60
2019-03-21T23:47:42.935Z,83.80
2019-03-21T23:50:13.501Z,84.10
2019-03-21T23:52:42.401Z,84.40
2019-03-21T23:55:11.447Z,84.70
2019-03-21T23:57:40.292Z,85.40
